createdAt,value
2018-04-17T00:00:42.761Z,8.86
2018-04-17T00:03:09.558Z,8.84
2018-04-17T00:05:36.339Z,9.21
2018-04-17T00:08:02.958Z,9.27
2018-04-17T00:10:33.787Z,9.12
2018-04-17T00:13:00.530Z,9.25
2018-04-17T00:15:27.240Z,9.13
2018-04-17T00:17:53.903Z,9.19
2018-04-17T00:20:23.676Z,9.22
2018-04-17T00:22:50.401Z,9.28
2018-04-17T00:25:17.053Z,9.40
2018-04-17T00:27:43.616Z,9.35
2018-04-17T00:30:13.836Z,9.51
2018-04-17T00:32:40.750Z,9.63
2018-04-17T00:35:07.457Z,9.70
2018-04-17T00:37:34.111Z,9.82
2018-04-17T00:40:04.669Z,9.96
2018-04-17T00:42:31.219Z,9.66
2018-04-17T00:44:57.893Z,9.75
2018-04-17T00:47:24.458Z,9.71
2018-04-17T00:49:51.713Z,9.68
2018-04-17T00:52:18.472Z,9.60
2018-04-17T00:54:45.098Z,9.49
2018-04-17T00:57:11.657Z,9.61
2018-04-17T00:59:38.301Z,9.41
2018-04-17T01:02:04.936Z,9.19
2018-04-17T01:04:31.658Z,9.43
2018-04-17T01:06:58.241Z,9.41
2018-04-17T01:09:24.902Z,9.46
2018-04-17T01:11:56.161Z,9.08
2018-04-17T01:14:22.805Z,9.22
2018-04-17T01:16:49.377Z,9.40
2018-04-17T01:19:16.074Z,9.54
2018-04-17T01:21:46.431Z,9.48
2018-04-17T01:24:13.141Z,9.60
2018-04-17T01:26:39.914Z,9.71
2018-04-17T01:29:06.569Z,9.52
2018-04-17T01:31:45.945Z,9.48
2018-04-17T01:34:12.522Z,9.61
2018-04-17T01:36:39.183Z,9.47
2018-04-17T01:39:05.825Z,9.56
2018-04-17T01:41:39.118Z,9.52
2018-04-17T01:44:05.785Z,9.75
2018-04-17T01:46:32.446Z,9.53
2018-04-17T01:48:59.045Z,9.40
2018-04-17T01:51:26.931Z,9.65
2018-04-17T01:53:53.649Z,9.81
2018-04-17T01:56:20.288Z,9.85
2018-04-17T01:58:46.937Z,9.86
2018-04-17T02:01:14.642Z,9.89
2018-04-17T02:03:41.320Z,9.49
2018-04-17T02:06:07.877Z,9.62
2018-04-17T02:08:34.531Z,9.32
2018-04-17T02:11:08.073Z,9.51
2018-04-17T02:13:34.675Z,9.51
2018-04-17T02:16:01.394Z,9.25
2018-04-17T02:18:28.095Z,9.22
2018-04-17T02:20:55.910Z,9.12
2018-04-17T02:23:22.585Z,9.02
2018-04-17T02:25:49.186Z,9.29
2018-04-17T02:28:16.204Z,9.01
2018-04-17T02:30:43.942Z,9.43
2018-04-17T02:33:10.590Z,9.38
2018-04-17T02:35:37.157Z,9.39
2018-04-17T02:38:03.716Z,9.44
2018-04-17T02:40:35.590Z,9.54
2018-04-17T02:43:02.278Z,9.40
2018-04-17T02:45:29.057Z,8.93
2018-04-17T02:47:55.761Z,8.98
2018-04-17T02:50:25.647Z,9.42
2018-04-17T02:52:52.304Z,9.21
2018-04-17T02:55:18.946Z,9.19
2018-04-17T02:57:45.612Z,9.28
2018-04-17T03:00:16.170Z,9.33
2018-04-17T03:02:42.840Z,8.93
2018-04-17T03:05:10.299Z,8.94
2018-04-17T03:07:36.989Z,8.85
2018-04-17T03:10:04.809Z,8.97
2018-04-17T03:12:31.991Z,9.28
2018-04-17T03:14:59.103Z,9.09
2018-04-17T03:17:25.812Z,8.99
2018-04-17T03:19:55.664Z,9.25
2018-04-17T03:22:22.337Z,9.33
2018-04-17T03:24:49.061Z,9.15
2018-04-17T03:27:15.804Z,9.24
2018-04-17T03:29:46.003Z,9.72
2018-04-17T03:32:12.586Z,9.90
2018-04-17T03:34:39.353Z,9.49
2018-04-17T03:37:06.013Z,9.94
2018-04-17T03:39:35.749Z,9.80
2018-04-17T03:42:02.457Z,9.62
2018-04-17T03:44:29.091Z,9.95
2018-04-17T03:46:55.828Z,9.67
2018-04-17T03:49:22.477Z,9.37
2018-04-17T03:51:49.005Z,9.94
2018-04-17T03:54:15.593Z,10.23
2018-04-17T03:56:42.209Z,9.18
2018-04-17T03:59:08.797Z,8.41
2018-04-17T04:01:39.418Z,8.08
2018-04-17T04:04:06.196Z,8.07
2018-04-17T04:06:32.710Z,8.11
2018-04-17T04:08:59.435Z,8.41
2018-04-17T04:11:26.401Z,8.64
2018-04-17T04:13:53.059Z,8.69
2018-04-17T04:19:31.126Z,8.97
2018-04-17T04:22:09.715Z,8.99
2018-04-17T04:24:48.245Z,8.98
2018-04-17T04:27:14.918Z,9.30
2018-04-17T04:29:46.707Z,9.21
2018-04-17T04:32:13.330Z,9.51
2018-04-17T04:34:40.014Z,9.63
2018-04-17T04:37:06.738Z,9.78
2018-04-17T04:39:34.465Z,9.84
2018-04-17T04:42:01.158Z,10.04
2018-04-17T04:44:27.871Z,10.27
2018-04-17T04:46:54.470Z,10.19
2018-04-17T04:49:21.055Z,10.54
2018-04-17T04:51:47.726Z,10.64
2018-04-17T04:54:14.405Z,10.50
2018-04-17T04:56:41.051Z,10.65
2018-04-17T04:59:07.729Z,10.53
2018-04-17T05:01:34.479Z,10.94
2018-04-17T05:04:01.254Z,11.00
2018-04-17T05:06:27.898Z,10.85
2018-04-17T05:08:54.537Z,10.77
2018-04-17T05:11:24.138Z,10.95
2018-04-17T05:13:50.901Z,10.79
2018-04-17T05:16:17.598Z,10.90
2018-04-17T05:18:44.172Z,10.93
2018-04-17T05:21:16.375Z,11.14
2018-04-17T05:23:43.022Z,11.55
2018-04-17T05:26:09.527Z,11.13
2018-04-17T05:28:36.211Z,11.41
2018-04-17T05:31:06.482Z,11.73
2018-04-17T05:33:33.155Z,11.54
2018-04-17T05:35:59.837Z,11.53
2018-04-17T05:38:26.424Z,11.44
2018-04-17T05:40:57.002Z,11.28
2018-04-17T05:43:23.608Z,11.31
2018-04-17T05:45:50.325Z,11.60
2018-04-17T05:48:17.026Z,11.70
2018-04-17T05:50:47.405Z,12.26
2018-04-17T05:53:14.126Z,11.82
2018-04-17T05:55:40.851Z,11.91
2018-04-17T05:58:08.405Z,12.62
2018-04-17T06:00:36.209Z,12.99
2018-04-17T06:03:02.832Z,12.60
2018-04-17T06:05:29.610Z,12.99
2018-04-17T06:07:56.338Z,12.85
2018-04-17T06:10:24.281Z,12.64
2018-04-17T06:12:50.965Z,13.39
2018-04-17T06:15:17.669Z,13.40
2018-04-17T06:17:44.322Z,13.48
2018-04-17T06:20:12.260Z,13.75
2018-04-17T06:22:38.883Z,13.67
2018-04-17T06:25:05.454Z,13.74
2018-04-17T06:27:32.297Z,13.15
2018-04-17T06:30:02.561Z,13.25
2018-04-17T06:32:29.558Z,13.14
2018-04-17T06:34:56.261Z,13.50
2018-04-17T06:37:22.989Z,13.73
2018-04-17T06:39:52.451Z,13.70
2018-04-17T06:42:19.154Z,13.76
2018-04-17T06:44:45.785Z,13.95
2018-04-17T06:47:12.453Z,14.17
2018-04-17T06:49:43.901Z,14.62
2018-04-17T06:52:10.570Z,14.04
2018-04-17T06:54:37.133Z,14.18
2018-04-17T06:57:03.709Z,14.26
2018-04-17T06:59:33.907Z,14.66
2018-04-17T07:02:00.526Z,14.41
2018-04-17T07:04:27.066Z,14.35
2018-04-17T07:06:54.043Z,14.57
2018-04-17T07:09:24.497Z,15.00
2018-04-17T07:11:51.150Z,15.10
2018-04-17T07:14:17.816Z,15.09
2018-04-17T07:16:44.472Z,15.35
2018-04-17T07:19:11.254Z,15.02
2018-04-17T07:21:37.853Z,15.41
2018-04-17T07:24:04.562Z,15.00
2018-04-17T07:26:31.205Z,15.49
2018-04-17T07:28:58.874Z,14.98
2018-04-17T07:31:25.547Z,15.35
2018-04-17T07:33:52.116Z,15.14
2018-04-17T07:36:18.763Z,15.09
2018-04-17T07:38:45.485Z,15.36
2018-04-17T07:41:12.396Z,15.05
2018-04-17T07:43:39.213Z,14.97
2018-04-17T07:46:05.869Z,15.07
2018-04-17T07:48:44.546Z,15.28
2018-04-17T07:51:11.235Z,15.48
2018-04-17T07:53:37.832Z,15.82
2018-04-17T07:56:04.434Z,16.07
2018-04-17T07:58:31.036Z,16.13
2018-04-17T08:00:58.801Z,16.22
2018-04-17T08:03:25.416Z,16.63
2018-04-17T08:05:52.063Z,15.94
2018-04-17T08:08:18.647Z,16.15
2018-04-17T08:10:46.249Z,16.47
2018-04-17T08:13:12.868Z,16.12
2018-04-17T08:15:39.601Z,16.15
2018-04-17T08:18:06.123Z,16.10
2018-04-17T08:20:36.298Z,16.33
2018-04-17T08:23:02.849Z,16.49
2018-04-17T08:25:29.494Z,16.64
2018-04-17T08:27:56.258Z,16.65
2018-04-17T08:30:23.908Z,16.92
2018-04-17T08:32:50.555Z,16.97
2018-04-17T08:35:17.243Z,17.00
2018-04-17T08:37:44.022Z,16.96
2018-04-17T08:40:14.540Z,16.84
2018-04-17T08:42:41.273Z,16.46
2018-04-17T08:45:07.921Z,17.45
2018-04-17T08:47:34.553Z,16.71
2018-04-17T08:50:01.233Z,17.05
2018-04-17T08:52:27.869Z,17.35
2018-04-17T08:54:54.513Z,16.54
2018-04-17T08:57:21.134Z,16.90
2018-04-17T08:59:48.808Z,16.83
2018-04-17T09:02:15.377Z,16.97
2018-04-17T09:04:42.113Z,17.00
2018-04-17T09:07:08.781Z,17.46
2018-04-17T09:09:39.233Z,17.72
2018-04-17T09:12:05.777Z,18.44
2018-04-17T09:14:32.430Z,18.37
2018-04-17T09:16:59.010Z,17.97
2018-04-17T09:19:25.575Z,18.18
2018-04-17T09:21:52.785Z,18.06
2018-04-17T09:24:19.529Z,17.76
2018-04-17T09:26:46.187Z,17.87
2018-04-17T09:29:14.367Z,18.11
2018-04-17T09:31:41.026Z,17.71
2018-04-17T09:34:07.762Z,17.53
2018-04-17T09:36:34.449Z,17.88
2018-04-17T09:39:05.578Z,17.03
2018-04-17T09:41:32.389Z,17.12
2018-04-17T09:43:59.040Z,17.16
2018-04-17T09:46:25.652Z,17.37
2018-04-17T09:48:58.718Z,17.45
2018-04-17T09:51:25.412Z,17.88
2018-04-17T09:53:52.149Z,17.75
2018-04-17T09:56:18.805Z,17.94
2018-04-17T09:58:46.510Z,18.62
2018-04-17T10:01:19.889Z,17.90
2018-04-17T10:03:46.623Z,18.09
2018-04-17T10:06:13.297Z,18.31
2018-04-17T10:08:47.904Z,16.67
2018-04-17T10:11:14.521Z,16.77
2018-04-17T10:13:41.085Z,16.70
2018-04-17T10:16:07.808Z,17.62
2018-04-17T10:18:38.329Z,17.53
2018-04-17T10:21:04.899Z,16.77
2018-04-17T10:23:31.633Z,16.98
2018-04-17T10:25:58.199Z,18.10
2018-04-17T10:28:28.525Z,17.71
2018-04-17T10:30:55.725Z,17.57
2018-04-17T10:33:22.410Z,18.30
2018-04-17T10:35:49.081Z,18.23
2018-04-17T10:38:15.825Z,17.69
2018-04-17T10:40:42.478Z,17.66
2018-04-17T10:43:09.032Z,17.71
2018-04-17T10:45:35.602Z,18.20
2018-04-17T10:48:02.161Z,17.80
2018-04-17T10:50:32.249Z,17.84
2018-04-17T10:52:58.854Z,17.90
2018-04-17T10:55:25.502Z,18.82
2018-04-17T10:57:52.066Z,18.67
2018-04-17T11:00:22.693Z,18.72
2018-04-17T11:02:49.349Z,18.36
2018-04-17T11:05:16.073Z,19.34
2018-04-17T11:07:42.674Z,19.50
2018-04-17T11:10:12.441Z,19.48
2018-04-17T11:12:39.149Z,20.09
2018-04-17T11:15:05.790Z,19.95
2018-04-17T11:17:32.413Z,20.21
2018-04-17T11:20:02.558Z,20.47
2018-04-17T11:22:29.110Z,21.31
2018-04-17T11:24:55.733Z,20.25
2018-04-17T11:27:22.453Z,18.21
2018-04-17T11:29:52.682Z,18.57
2018-04-17T11:32:19.268Z,17.45
2018-04-17T11:34:45.980Z,17.72
2018-04-17T11:37:12.578Z,17.19
2018-04-17T11:39:42.639Z,16.52
2018-04-17T11:42:09.316Z,16.08
2018-04-17T11:44:35.933Z,16.66
2018-04-17T11:47:02.426Z,16.09
2018-04-17T11:49:32.621Z,16.33
2018-04-17T11:51:59.253Z,16.41
2018-04-17T11:54:25.930Z,15.75
2018-04-17T11:56:52.554Z,16.09
2018-04-17T11:59:22.943Z,16.38
2018-04-17T12:01:49.609Z,16.11
2018-04-17T12:04:16.319Z,16.68
2018-04-17T12:06:42.970Z,16.66
2018-04-17T12:09:10.731Z,16.45
2018-04-17T12:11:37.362Z,16.65
2018-04-17T12:14:04.003Z,16.36
2018-04-17T12:16:30.564Z,15.77
2018-04-17T12:19:00.798Z,15.99
2018-04-17T12:21:27.566Z,15.12
2018-04-17T12:23:54.197Z,15.10
2018-04-17T12:26:20.870Z,15.29
2018-04-17T12:28:47.541Z,15.26
2018-04-17T12:31:14.190Z,15.68
2018-04-17T12:33:41.204Z,15.02
2018-04-17T12:36:07.757Z,16.01
2018-04-17T12:38:37.570Z,14.90
2018-04-17T12:41:04.192Z,14.87
2018-04-17T12:43:30.838Z,14.60
2018-04-17T12:45:57.435Z,14.82
2018-04-17T12:48:25.342Z,14.46
2018-04-17T12:50:51.975Z,13.79
2018-04-17T12:53:18.605Z,14.00
2018-04-17T12:55:45.333Z,14.94
2018-04-17T12:58:14.910Z,14.30
2018-04-17T13:00:41.538Z,14.29
2018-04-17T13:03:08.256Z,14.46
2018-04-17T13:05:34.925Z,14.92
2018-04-17T13:08:02.542Z,14.71
2018-04-17T13:10:29.168Z,14.52
2018-04-17T13:12:55.812Z,14.79
2018-04-17T13:15:22.534Z,15.25
2018-04-17T13:17:49.225Z,15.08
2018-04-17T13:20:15.801Z,14.54
2018-04-17T13:22:42.577Z,15.42
2018-04-17T13:25:09.262Z,15.74
2018-04-17T13:27:36.043Z,15.58
2018-04-17T13:30:08.269Z,15.17
2018-04-17T13:32:34.952Z,15.33
2018-04-17T13:35:01.603Z,15.20
2018-04-17T13:37:28.341Z,15.58
2018-04-17T13:39:56.193Z,15.10
2018-04-17T13:42:22.880Z,15.10
2018-04-17T13:44:49.453Z,15.57
2018-04-17T13:47:16.204Z,15.53
2018-04-17T13:49:43.915Z,14.87
2018-04-17T13:52:10.399Z,15.11
2018-04-17T13:54:37.035Z,15.09
2018-04-17T13:57:03.590Z,15.34
2018-04-17T13:59:30.409Z,15.17
2018-04-17T14:01:57.127Z,15.13
2018-04-17T14:04:23.858Z,14.84
2018-04-17T14:06:50.567Z,14.93
2018-04-17T14:09:23.334Z,14.80
2018-04-17T14:11:50.050Z,14.77
2018-04-17T14:14:17.218Z,14.91
2018-04-17T14:16:43.934Z,14.55
2018-04-17T14:19:13.914Z,14.20
2018-04-17T14:21:40.622Z,14.19
2018-04-17T14:24:07.240Z,14.68
2018-04-17T14:26:33.925Z,14.32
2018-04-17T14:29:04.137Z,14.30
2018-04-17T14:31:30.776Z,13.84
2018-04-17T14:33:57.447Z,14.20
2018-04-17T14:36:24.136Z,13.98
2018-04-17T14:38:54.765Z,14.15
2018-04-17T14:41:21.473Z,14.13
2018-04-17T14:43:48.166Z,13.95
2018-04-17T14:46:14.738Z,13.88
2018-04-17T14:48:44.878Z,13.74
2018-04-17T14:51:11.475Z,14.10
2018-04-17T14:53:38.124Z,14.06
2018-04-17T14:56:04.734Z,14.13
2018-04-17T14:58:35.338Z,14.42
2018-04-17T15:01:01.969Z,14.35
2018-04-17T15:03:28.713Z,14.28
2018-04-17T15:05:55.356Z,14.39
2018-04-17T15:08:29.136Z,14.47
2018-04-17T15:10:55.742Z,14.45
2018-04-17T15:13:22.418Z,14.50
2018-04-17T15:15:49.118Z,14.29
2018-04-17T15:18:19.422Z,14.57
2018-04-17T15:20:46.165Z,14.36
2018-04-17T15:23:12.821Z,14.02
2018-04-17T15:25:39.382Z,14.62
2018-04-17T15:28:12.527Z,13.98
2018-04-17T15:30:39.228Z,14.13
2018-04-17T15:33:05.731Z,13.80
2018-04-17T15:35:32.494Z,13.42
2018-04-17T15:37:59.233Z,13.31
2018-04-17T15:40:25.926Z,13.48
2018-04-17T15:42:52.575Z,13.21
2018-04-17T15:45:19.090Z,13.49
2018-04-17T15:47:49.561Z,13.05
2018-04-17T15:50:16.241Z,13.25
2018-04-17T15:52:42.872Z,13.27
2018-04-17T15:55:10.224Z,13.05
2018-04-17T15:57:37.212Z,13.27
2018-04-17T16:00:03.755Z,13.20
2018-04-17T16:02:30.522Z,13.21
2018-04-17T16:04:57.275Z,12.74
2018-04-17T16:07:24.738Z,12.63
2018-04-17T16:09:51.330Z,13.14
2018-04-17T16:12:17.982Z,12.76
2018-04-17T16:14:44.431Z,13.07
2018-04-17T16:17:11.147Z,12.59
2018-04-17T16:19:40.966Z,12.66
2018-04-17T16:22:07.626Z,12.72
2018-04-17T16:24:34.331Z,12.87
2018-04-17T16:27:01.083Z,12.61
2018-04-17T16:29:31.152Z,12.77
2018-04-17T16:31:57.806Z,12.59
2018-04-17T16:34:24.386Z,12.59
2018-04-17T16:36:51.134Z,12.50
2018-04-17T16:39:21.310Z,12.82
2018-04-17T16:41:48.058Z,12.53
2018-04-17T16:44:14.798Z,12.77
2018-04-17T16:46:41.396Z,12.80
2018-04-17T16:49:08.357Z,12.28
2018-04-17T16:51:35.032Z,12.80
2018-04-17T16:54:01.729Z,12.94
2018-04-17T16:56:28.439Z,12.39
2018-04-17T16:58:56.383Z,12.50
2018-04-17T17:01:23.087Z,12.37
2018-04-17T17:03:49.713Z,12.90
2018-04-17T17:06:17.254Z,12.39
2018-04-17T17:08:47.005Z,12.01
2018-04-17T17:11:14.259Z,12.09
2018-04-17T17:13:40.817Z,12.55
2018-04-17T17:16:07.564Z,12.24
2018-04-17T17:18:37.309Z,12.67
2018-04-17T17:21:04.187Z,12.77
2018-04-17T17:23:30.943Z,12.32
2018-04-17T17:25:57.701Z,12.20
2018-04-17T17:28:25.365Z,12.31
2018-04-17T17:30:51.956Z,12.11
2018-04-17T17:33:18.768Z,12.61
2018-04-17T17:35:45.429Z,12.48
2018-04-17T17:38:13.206Z,12.29
2018-04-17T17:40:39.866Z,12.56
2018-04-17T17:43:06.990Z,12.65
2018-04-17T17:45:33.660Z,12.84
2018-04-17T17:48:02.371Z,12.48
2018-04-17T17:50:29.149Z,12.53
2018-04-17T17:52:55.876Z,12.44
2018-04-17T17:55:22.502Z,12.31
2018-04-17T17:57:50.238Z,12.41
2018-04-17T18:00:17.009Z,12.36
2018-04-17T18:02:43.742Z,12.15
2018-04-17T18:05:10.331Z,12.52
2018-04-17T18:10:04.293Z,12.54
2018-04-17T18:12:31.016Z,12.60
2018-04-17T18:14:57.628Z,12.78
2018-04-17T18:17:25.403Z,12.88
2018-04-17T18:19:51.973Z,12.90
2018-04-17T18:22:19.194Z,12.83
2018-04-17T18:24:45.853Z,12.94
2018-04-17T18:27:12.538Z,13.03
2018-04-17T18:29:39.186Z,13.00
2018-04-17T18:32:07.344Z,12.83
2018-04-17T18:34:33.970Z,12.91
2018-04-17T18:37:01.551Z,12.73
2018-04-17T18:39:28.298Z,12.67
2018-04-17T18:41:55.035Z,12.54
2018-04-17T18:44:21.754Z,12.40
2018-04-17T18:46:48.379Z,12.46
2018-04-17T18:49:16.114Z,12.35
2018-04-17T18:51:42.699Z,12.26
2018-04-17T18:54:09.437Z,12.38
2018-04-17T18:56:36.062Z,12.42
2018-04-17T18:59:09.143Z,12.53
2018-04-17T19:01:35.768Z,12.35
2018-04-17T19:04:02.442Z,12.38
2018-04-17T19:06:29.213Z,12.35
2018-04-17T19:08:59.749Z,12.38
2018-04-17T19:11:26.323Z,12.24
2018-04-17T19:13:52.996Z,12.25
2018-04-17T19:16:19.587Z,12.33
2018-04-17T19:18:51.146Z,12.17
2018-04-17T19:21:17.722Z,12.19
2018-04-17T19:23:45.294Z,12.13
2018-04-17T19:26:11.935Z,12.05
2018-04-17T19:28:38.716Z,12.11
2018-04-17T19:31:05.447Z,12.06
2018-04-17T19:33:32.135Z,12.05
2018-04-17T19:35:58.719Z,12.01
2018-04-17T19:38:28.582Z,11.88
2018-04-17T19:40:55.266Z,11.83
2018-04-17T19:43:21.963Z,12.02
2018-04-17T19:45:48.613Z,12.02
2018-04-17T19:48:16.350Z,11.97
2018-04-17T19:50:42.987Z,11.96
2018-04-17T19:53:09.674Z,12.14
2018-04-17T19:55:36.331Z,12.13
2018-04-17T19:58:16.345Z,12.33
2018-04-17T20:00:42.933Z,12.52
2018-04-17T20:03:09.656Z,12.54
2018-04-17T20:05:36.271Z,12.48
2018-04-17T20:08:05.939Z,12.52
2018-04-17T20:10:32.771Z,12.05
2018-04-17T20:12:59.514Z,11.55
2018-04-17T20:15:26.234Z,11.97
2018-04-17T20:17:53.006Z,11.76
2018-04-17T20:20:19.763Z,11.81
2018-04-17T20:22:46.460Z,11.71
2018-04-17T20:25:13.139Z,11.76
2018-04-17T20:27:39.792Z,11.90
2018-04-17T20:30:06.308Z,11.69
2018-04-17T20:32:33.062Z,11.88
2018-04-17T20:34:59.786Z,11.78
2018-04-17T20:37:33.130Z,11.42
2018-04-17T20:39:59.811Z,11.25
2018-04-17T20:42:27.091Z,11.31
2018-04-17T20:44:53.702Z,11.11
2018-04-17T20:47:27.291Z,11.19
2018-04-17T20:49:53.938Z,11.34
2018-04-17T20:52:20.718Z,11.67
2018-04-17T20:54:47.961Z,11.46
2018-04-17T20:57:15.609Z,11.16
2018-04-17T20:59:42.270Z,11.21
2018-04-17T21:02:08.921Z,11.13
2018-04-17T21:04:35.550Z,11.33
2018-04-17T21:07:03.269Z,11.19
2018-04-17T21:09:29.898Z,11.25
2018-04-17T21:11:56.603Z,10.95
2018-04-17T21:14:23.262Z,11.12
2018-04-17T21:16:51.244Z,10.80
2018-04-17T21:19:17.983Z,11.13
2018-04-17T21:21:44.550Z,10.82
2018-04-17T21:24:11.164Z,10.73
2018-04-17T21:26:37.866Z,10.44
2018-04-17T21:29:04.502Z,10.34
2018-04-17T21:31:31.205Z,10.26
2018-04-17T21:33:57.910Z,10.57
2018-04-17T21:36:24.554Z,10.33
2018-04-17T21:38:52.420Z,10.47
2018-04-17T21:41:19.065Z,10.63
2018-04-17T21:43:45.807Z,10.69
2018-04-17T21:46:12.486Z,10.70
2018-04-17T21:48:45.726Z,10.88
2018-04-17T21:51:12.319Z,10.84
2018-04-17T21:53:38.889Z,10.75
2018-04-17T21:56:05.537Z,10.96
2018-04-17T21:58:36.062Z,10.74
2018-04-17T22:01:02.673Z,10.75
2018-04-17T22:03:29.249Z,10.63
2018-04-17T22:05:55.923Z,10.69
2018-04-17T22:08:23.506Z,10.80
2018-04-17T22:10:50.213Z,10.85
2018-04-17T22:13:16.948Z,10.78
2018-04-17T22:15:43.654Z,10.72
2018-04-17T22:18:13.769Z,10.68
2018-04-17T22:20:40.436Z,10.77
2018-04-17T22:23:07.257Z,10.95
2018-04-17T22:25:34.076Z,11.02
2018-04-17T22:28:04.405Z,10.94
2018-04-17T22:30:31.127Z,11.15
2018-04-17T22:32:57.830Z,11.45
2018-04-17T22:35:24.559Z,11.56
2018-04-17T22:38:01.142Z,11.73
2018-04-17T22:40:27.767Z,12.02
2018-04-17T22:42:54.505Z,12.07
2018-04-17T22:45:21.018Z,12.08
2018-04-17T22:47:53.817Z,12.05
2018-04-17T22:50:20.863Z,12.15
2018-04-17T22:52:47.438Z,12.19
2018-04-17T22:55:14.625Z,12.21
2018-04-17T22:57:46.926Z,12.19
2018-04-17T23:00:13.505Z,11.96
2018-04-17T23:02:40.270Z,11.92
2018-04-17T23:05:06.941Z,11.96
2018-04-17T23:07:38.029Z,11.95
2018-04-17T23:10:04.605Z,11.93
2018-04-17T23:12:31.326Z,11.99
2018-04-17T23:14:58.033Z,11.94
2018-04-17T23:17:25.849Z,11.99
2018-04-17T23:19:53.025Z,12.05
2018-04-17T23:22:19.720Z,11.92
2018-04-17T23:24:46.534Z,12.07
2018-04-17T23:27:16.314Z,12.07
2018-04-17T23:29:43.037Z,11.90
2018-04-17T23:32:09.629Z,12.06
2018-04-17T23:34:36.303Z,11.76
2018-04-17T23:37:06.724Z,11.77
2018-04-17T23:39:33.295Z,11.83
2018-04-17T23:42:00.029Z,11.76
2018-04-17T23:44:26.581Z,11.77
2018-04-17T23:46:59.865Z,11.68
2018-04-17T23:49:26.532Z,11.88
2018-04-17T23:51:53.258Z,11.92
2018-04-17T23:54:19.901Z,11.78
2018-04-17T23:56:53.832Z,11.85
2018-04-17T23:59:20.458Z,11.83
